KACV

Arcata Airport

Airport
ICAO code
KACV
Summary
ICAO Region
NAM
ICAO Territory
Location

Arcata, California, California

Serving
Humboldt County
Coordinates
40° 58' 15" N , 124° 6' 23" W
KCC
Csb
Airport WX
Fog
Metar
Observation
KACV 171353Z AUTO 14004KT 1/4SM R32/1400V1600FT FG VV002 13/13 A2987 RMK AO2 SLP118 T01330128
Station
Arcata / Eureka, Arcata Airport
Date/Time
2022-08-17 13:53:00
Wind direction
140°
Wind speed
04 kts
Lowest cloud amount
n/a
Temperature
13.3°C
Dew point
12.8°C
Humidity
96%
Weather condition
fog

Arcata Airport, also known as Arcata/Eureka Airport, is an airport located 24 km north of Eureka in the unincorporated town of McKinleyville, California. This regional airport serves Humboldt County, including the two primary regional cities that compose its name: Arcata and Eureka.

Climatology

Dry-summer subtropical ”Mediterranean" climate (Köppen climate classification Csb) - characterized by warm, dry summers and mild winters.

Airport map

Aerial View

SKYbrary Partners:

Safety knowledge contributed by: